createdAt,value
2016-04-07T00:00:29.338Z,10.22
2016-04-07T00:01:29.339Z,10.26
2016-04-07T00:02:29.342Z,10.19
2016-04-07T00:03:29.345Z,10.19
2016-04-07T00:04:29.380Z,10.19
2016-04-07T00:05:29.397Z,10.23
2016-04-07T00:06:29.400Z,10.22
2016-04-07T00:07:29.434Z,10.19
2016-04-07T00:08:29.594Z,10.17
2016-04-07T00:09:29.455Z,10.15
2016-04-07T00:10:29.458Z,10.12
2016-04-07T00:11:29.477Z,10.13
2016-04-07T00:12:29.527Z,10.1
2016-04-07T00:13:29.497Z,10.02
2016-04-07T00:14:29.563Z,10.01
2016-04-07T00:15:29.549Z,9.99
2016-04-07T00:16:29.576Z,9.99
2016-04-07T00:17:29.623Z,9.87
2016-04-07T00:18:29.686Z,9.94
2016-04-07T00:19:29.748Z,9.86
2016-04-07T00:20:29.811Z,9.91
2016-04-07T00:21:29.858Z,9.92
2016-04-07T00:22:29.877Z,9.89
2016-04-07T00:23:30.129Z,9.95
2016-04-07T00:24:29.944Z,9.98
2016-04-07T00:25:29.822Z,9.99
2016-04-07T00:26:30.007Z,10.07
2016-04-07T00:27:30.000Z,9.99
2016-04-07T00:28:30.023Z,10.01
2016-04-07T00:29:30.080Z,9.98
2016-04-07T00:30:30.071Z,9.98
2016-04-07T00:31:30.078Z,9.99
2016-04-07T00:32:30.099Z,10.09
2016-04-07T00:33:30.119Z,10.12
2016-04-07T00:34:30.123Z,10.16
2016-04-07T00:35:30.190Z,10.16
2016-04-07T00:36:30.179Z,10.22
2016-04-07T00:37:30.198Z,10.25
2016-04-07T00:38:30.545Z,10.19
2016-04-07T00:39:30.221Z,10.28
2016-04-07T00:40:30.224Z,10.25
2016-04-07T00:41:30.243Z,10.26
2016-04-07T00:42:30.261Z,10.28
2016-04-07T00:43:30.312Z,10.34
2016-04-07T00:44:30.299Z,10.38
2016-04-07T00:45:30.301Z,10.3
2016-04-07T00:46:30.321Z,10.28
2016-04-07T00:47:30.182Z,10.31
2016-04-07T00:48:30.356Z,10.34
2016-04-07T00:49:30.359Z,10.34
2016-04-07T00:50:30.393Z,10.31
2016-04-07T00:51:30.396Z,10.25
2016-04-07T00:52:30.430Z,10.26
2016-04-07T00:53:30.620Z,10.31
2016-04-07T00:54:30.436Z,10.26
2016-04-07T00:55:30.454Z,10.31
2016-04-07T00:56:30.488Z,10.3
2016-04-07T00:57:30.475Z,10.25
2016-04-07T00:58:30.525Z,10.26
2016-04-07T00:59:30.542Z,10.31
2016-04-07T01:00:30.514Z,10.31
2016-04-07T01:01:30.533Z,10.28
2016-04-07T01:02:30.567Z,10.3
2016-04-07T01:03:30.569Z,10.3
2016-04-07T01:04:30.588Z,10.31
2016-04-07T01:05:30.606Z,10.31
2016-04-07T01:06:30.609Z,10.33
2016-04-07T01:07:30.627Z,10.26
2016-04-07T01:08:30.708Z,10.26
2016-04-07T01:09:30.649Z,10.28
2016-04-07T01:10:30.666Z,10.25
2016-04-07T01:11:30.685Z,10.3
2016-04-07T01:12:30.735Z,10.31
2016-04-07T01:13:30.737Z,10.3
2016-04-07T01:14:30.724Z,10.22
2016-04-07T01:15:30.743Z,10.3
2016-04-07T01:16:30.760Z,10.26
2016-04-07T01:17:30.762Z,10.19
2016-04-07T01:18:30.781Z,10.22
2016-04-07T01:19:30.800Z,10.19
2016-04-07T01:20:30.818Z,10.13
2016-04-07T01:21:30.821Z,10.16
2016-04-07T01:22:30.854Z,10.05
2016-04-07T01:23:30.764Z,10.05
2016-04-07T01:24:30.859Z,10.02
2016-04-07T01:25:30.909Z,10.1
2016-04-07T01:26:30.897Z,10.12
2016-04-07T01:27:30.947Z,10.05
2016-04-07T01:28:30.933Z,10.09
2016-04-07T01:29:30.936Z,9.95
2016-04-07T01:30:30.955Z,10.02
2016-04-07T01:31:30.972Z,9.99
2016-04-07T01:32:30.991Z,9.95
2016-04-07T01:33:30.994Z,9.91
2016-04-07T01:34:31.027Z,9.84
2016-04-07T01:35:31.046Z,9.8
2016-04-07T01:36:31.049Z,9.87
2016-04-07T01:37:31.067Z,9.82
2016-04-07T01:38:31.070Z,9.86
2016-04-07T01:39:31.104Z,9.87
2016-04-07T01:40:31.091Z,9.87
2016-04-07T01:41:31.140Z,9.79
2016-04-07T01:42:31.143Z,9.64
2016-04-07T01:43:31.130Z,9.72
2016-04-07T01:44:31.164Z,9.69
2016-04-07T01:45:31.182Z,9.76
2016-04-07T01:46:31.201Z,9.72
2016-04-07T01:47:31.203Z,9.76
2016-04-07T01:48:31.221Z,9.77
2016-04-07T01:49:31.240Z,9.74
2016-04-07T01:50:31.243Z,9.74
2016-04-07T01:51:31.261Z,9.8
2016-04-07T01:52:31.279Z,9.74
2016-04-07T01:53:31.282Z,9.64
2016-04-07T01:54:31.300Z,9.65
2016-04-07T01:55:31.303Z,9.62
2016-04-07T01:56:31.368Z,9.68
2016-04-07T01:57:31.355Z,9.69
2016-04-07T01:58:31.342Z,9.65
2016-04-07T01:59:31.360Z,9.62
2016-04-07T02:00:31.394Z,9.65
2016-04-07T02:01:31.381Z,9.56
2016-04-07T02:02:31.447Z,9.54
2016-04-07T02:03:31.433Z,9.51
2016-04-07T02:04:31.436Z,9.58
2016-04-07T02:05:31.470Z,9.55
2016-04-07T02:06:45.566Z,9.59
2016-04-07T02:07:31.475Z,9.51
2016-04-07T02:08:31.494Z,9.48
2016-04-07T02:09:31.513Z,9.51
2016-04-07T02:10:31.531Z,9.51
2016-04-07T02:11:31.549Z,9.5
2016-04-07T02:12:31.551Z,9.59
2016-04-07T02:13:31.586Z,9.59
2016-04-07T02:14:31.588Z,9.51
2016-04-07T02:15:31.591Z,9.51
2016-04-07T02:16:31.610Z,9.47
2016-04-07T02:17:31.643Z,9.51
2016-04-07T02:18:31.646Z,9.5
2016-04-07T02:19:31.649Z,9.48
2016-04-07T02:20:31.667Z,9.47
2016-04-07T02:21:31.685Z,9.5
2016-04-07T02:22:31.688Z,9.51
2016-04-07T02:23:31.706Z,9.47
2016-04-07T02:24:31.740Z,9.44
2016-04-07T02:25:31.743Z,9.46
2016-04-07T02:26:31.762Z,9.32
2016-04-07T02:27:31.748Z,9.34
2016-04-07T02:28:31.782Z,9.39
2016-04-07T02:29:31.801Z,9.4
2016-04-07T02:30:31.804Z,9.46
2016-04-07T02:31:31.806Z,9.34
2016-04-07T02:32:31.855Z,9.34
2016-04-07T02:33:31.827Z,9.36
2016-04-07T02:34:31.845Z,9.36
2016-04-07T02:35:31.864Z,9.34
2016-04-07T02:36:31.883Z,9.37
2016-04-07T02:37:31.916Z,9.43
2016-04-07T02:38:31.918Z,9.37
2016-04-07T02:39:31.936Z,9.4
2016-04-07T02:40:31.939Z,9.39
2016-04-07T02:41:31.957Z,9.37
2016-04-07T02:42:31.976Z,9.39
2016-04-07T02:43:31.994Z,9.36
2016-04-07T02:44:31.997Z,9.4
2016-04-07T02:45:32.031Z,9.41
2016-04-07T02:46:32.034Z,9.44
2016-04-07T02:47:32.052Z,9.44
2016-04-07T02:48:32.055Z,9.5
2016-04-07T02:49:32.073Z,9.44
2016-04-07T02:50:32.076Z,9.48
2016-04-07T02:51:32.094Z,9.46
2016-04-07T02:52:32.112Z,9.46
2016-04-07T02:53:32.146Z,9.47
2016-04-07T02:54:32.149Z,9.48
2016-04-07T02:55:32.152Z,9.48
2016-04-07T02:56:32.154Z,9.54
2016-04-07T02:57:32.189Z,9.54
2016-04-07T02:58:32.206Z,9.56
2016-04-07T02:59:32.194Z,9.58
2016-04-07T03:00:32.212Z,9.61
2016-04-07T03:01:32.262Z,9.62
2016-04-07T03:02:32.248Z,9.68
2016-04-07T03:03:32.267Z,9.66
2016-04-07T03:04:32.270Z,9.72
2016-04-07T03:05:32.273Z,9.66
2016-04-07T03:06:32.291Z,9.68
2016-04-07T03:07:32.325Z,9.79
2016-04-07T03:08:32.328Z,9.83
2016-04-07T03:09:32.346Z,9.82
2016-04-07T03:10:32.349Z,9.87
2016-04-07T03:11:32.367Z,9.87
2016-04-07T03:12:32.370Z,9.87
2016-04-07T03:13:32.387Z,9.89
2016-04-07T03:14:32.421Z,9.87
2016-04-07T03:15:32.424Z,9.86
2016-04-07T03:16:32.443Z,9.89
2016-04-07T03:17:32.445Z,9.98
2016-04-07T03:18:32.463Z,9.95
2016-04-07T03:19:32.481Z,9.95
2016-04-07T03:20:32.501Z,9.87
2016-04-07T03:21:32.503Z,9.91
2016-04-07T03:22:32.552Z,9.99
2016-04-07T03:23:32.554Z,9.99
2016-04-07T03:24:32.557Z,9.98
2016-04-07T03:25:32.576Z,9.94
2016-04-07T03:26:32.579Z,9.89
2016-04-07T03:27:32.581Z,9.98
2016-04-07T03:28:32.600Z,9.94
2016-04-07T03:29:32.650Z,9.94
2016-04-07T03:30:32.652Z,9.94
2016-04-07T03:31:32.639Z,9.92
2016-04-07T03:32:32.673Z,9.89
2016-04-07T03:33:32.676Z,9.94
2016-04-07T03:34:32.694Z,10.01
2016-04-07T03:35:32.697Z,10.01
2016-04-07T03:36:32.747Z,9.98
2016-04-07T03:37:32.750Z,9.99
2016-04-07T03:38:32.752Z,9.98
2016-04-07T03:39:32.770Z,10.01
2016-04-07T03:40:32.773Z,9.98
2016-04-07T03:41:32.791Z,10.09
2016-04-07T03:42:32.810Z,9.99
2016-04-07T03:43:32.827Z,10.09
2016-04-07T03:44:32.847Z,10.04
2016-04-07T03:45:32.849Z,10.09
2016-04-07T03:46:32.883Z,10.05
2016-04-07T03:47:32.886Z,10.01
2016-04-07T03:48:32.887Z,9.99
2016-04-07T03:49:32.906Z,9.92
2016-04-07T03:50:32.909Z,9.99
2016-04-07T03:51:32.974Z,10.05
2016-04-07T03:52:32.961Z,10.04
2016-04-07T03:53:32.965Z,10.02
2016-04-07T03:54:32.983Z,10.09
2016-04-07T03:55:32.985Z,10.07
2016-04-07T03:56:33.018Z,10.12
2016-04-07T03:57:33.037Z,10.05
2016-04-07T03:58:33.040Z,10.17
2016-04-07T03:59:33.073Z,10.17
2016-04-07T04:00:33.076Z,10.12
2016-04-07T04:01:33.095Z,10.19
2016-04-07T04:02:33.097Z,10.05
2016-04-07T04:03:33.116Z,10.2
2016-04-07T04:04:33.150Z,10.16
2016-04-07T04:05:33.168Z,10.19
2016-04-07T04:06:33.186Z,10.13
2016-04-07T04:07:33.173Z,10.17
2016-04-07T04:08:33.192Z,10.12
2016-04-07T04:09:33.195Z,10.07
2016-04-07T04:10:33.213Z,10.1
2016-04-07T04:11:33.247Z,10.12
2016-04-07T04:12:33.250Z,10.15
2016-04-07T04:13:33.252Z,10.15
2016-04-07T04:14:33.271Z,10.2
2016-04-07T04:15:33.289Z,10.19
2016-04-07T04:16:33.291Z,10.16
2016-04-07T04:17:33.310Z,10.16
2016-04-07T04:18:33.313Z,10.13
2016-04-07T04:19:33.331Z,10.15
2016-04-07T04:20:33.380Z,10.15
2016-04-07T04:21:33.383Z,10.1
2016-04-07T04:22:33.371Z,10.09
2016-04-07T04:23:33.388Z,10.02
2016-04-07T04:24:33.407Z,10.04
2016-04-07T04:25:33.426Z,10.02
2016-04-07T04:26:33.443Z,10.02
2016-04-07T04:27:33.446Z,10.1
2016-04-07T04:28:33.465Z,10.07
2016-04-07T04:29:33.499Z,9.97
2016-04-07T04:30:33.500Z,10.01
2016-04-07T04:31:33.519Z,9.95
2016-04-07T04:32:33.522Z,9.99
2016-04-07T04:33:33.540Z,9.99
2016-04-07T04:34:33.559Z,9.95
2016-04-07T04:35:33.592Z,9.95
2016-04-07T04:36:33.580Z,9.99
2016-04-07T04:37:33.582Z,9.92
2016-04-07T04:38:33.616Z,9.92
2016-04-07T04:39:33.619Z,9.87
2016-04-07T04:40:33.637Z,9.92
2016-04-07T04:41:33.672Z,9.97
2016-04-07T04:42:33.658Z,9.98
2016-04-07T04:43:33.691Z,10.04
2016-04-07T04:44:33.694Z,9.98
2016-04-07T04:45:33.713Z,9.98
2016-04-07T04:46:33.716Z,10.04
2016-04-07T04:47:33.749Z,9.99
2016-04-07T04:48:33.752Z,10.02
2016-04-07T04:49:33.786Z,10.01
2016-04-07T04:50:33.789Z,9.99
2016-04-07T04:51:33.807Z,9.95
2016-04-07T04:52:33.826Z,9.97
2016-04-07T04:53:33.860Z,10.02
2016-04-07T04:54:33.832Z,9.99
2016-04-07T04:55:33.849Z,9.98
2016-04-07T04:56:33.868Z,9.97
2016-04-07T04:57:33.871Z,9.95
2016-04-07T04:58:33.904Z,9.98
2016-04-07T04:59:33.923Z,9.97
2016-04-07T05:00:33.925Z,10.05
2016-04-07T05:01:33.928Z,10.07
2016-04-07T05:02:33.962Z,10.07
2016-04-07T05:03:33.965Z,10.12
2016-04-07T05:04:34.014Z,10.04
2016-04-07T05:05:34.001Z,10.09
2016-04-07T05:06:34.020Z,10.15
2016-04-07T05:07:34.023Z,10.16
2016-04-07T05:08:34.025Z,10.22
2016-04-07T05:09:34.075Z,10.22
2016-04-07T05:10:34.061Z,10.26
2016-04-07T05:11:34.080Z,10.26
2016-04-07T05:12:34.114Z,10.35
2016-04-07T05:13:34.116Z,10.42
2016-04-07T05:14:34.120Z,10.4
2016-04-07T05:15:34.153Z,10.42
2016-04-07T05:16:34.141Z,10.51
2016-04-07T05:17:34.174Z,10.44
2016-04-07T05:18:34.224Z,10.53
2016-04-07T05:19:34.211Z,10.51
2016-04-07T05:20:34.229Z,10.46
2016-04-07T05:21:34.232Z,10.53
2016-04-07T05:22:34.250Z,10.53
2016-04-07T05:23:34.252Z,10.64
2016-04-07T05:24:34.271Z,10.68
2016-04-07T05:25:34.289Z,10.61
2016-04-07T05:26:34.307Z,10.68
2016-04-07T05:27:34.310Z,10.72
2016-04-07T05:28:34.329Z,10.72
2016-04-07T05:29:34.332Z,10.76
2016-04-07T05:30:34.350Z,10.75
2016-04-07T05:31:34.384Z,10.75
2016-04-07T05:32:34.370Z,10.68
2016-04-07T05:33:34.420Z,10.76
2016-04-07T05:34:34.407Z,10.76
2016-04-07T05:35:34.426Z,10.86
2016-04-07T05:36:34.444Z,10.89
2016-04-07T05:37:34.447Z,10.89
2016-04-07T05:38:34.465Z,10.86
2016-04-07T05:39:34.500Z,10.89
2016-04-07T05:40:34.502Z,10.92
2016-04-07T05:41:34.536Z,10.84
2016-04-07T05:42:34.538Z,10.96
2016-04-07T05:43:34.541Z,10.93
2016-04-07T05:44:34.559Z,10.97
2016-04-07T05:45:34.578Z,11.1
2016-04-07T05:46:34.580Z,10.9
2016-04-07T05:47:34.646Z,10.96
2016-04-07T05:48:34.633Z,10.99
2016-04-07T05:49:34.636Z,11.08
2016-04-07T05:50:34.638Z,11.07
2016-04-07T05:51:34.672Z,11.11
2016-04-07T05:52:34.691Z,11.08
2016-04-07T05:53:34.693Z,11.04
2016-04-07T05:54:34.727Z,10.99
2016-04-07T05:55:34.730Z,10.99
2016-04-07T05:56:34.764Z,11.11
2016-04-07T05:57:34.766Z,11.05
2016-04-07T05:58:34.784Z,11.02
2016-04-07T05:59:34.803Z,10.96
2016-04-07T06:00:34.790Z,11.05
2016-04-07T06:01:34.839Z,10.96
2016-04-07T06:02:34.842Z,10.94
2016-04-07T06:03:34.860Z,10.93
2016-04-07T06:04:34.863Z,10.97
2016-04-07T06:05:34.881Z,10.92
2016-04-07T06:06:34.884Z,10.97
2016-04-07T06:07:34.917Z,11.05
2016-04-07T06:08:34.910Z,10.99
2016-04-07T06:09:34.928Z,11.05
2016-04-07T06:10:34.947Z,10.99
2016-04-07T06:11:34.965Z,11.1
2016-04-07T06:12:34.983Z,11.02
2016-04-07T06:13:35.002Z,11.11
2016-04-07T06:14:35.005Z,11.07
2016-04-07T06:15:35.022Z,11.18
2016-04-07T06:16:35.057Z,11.07
2016-04-07T06:17:35.060Z,11.08
2016-04-07T06:18:35.077Z,11.12
2016-04-07T06:19:49.190Z,11.18
2016-04-07T06:20:35.083Z,11.14
2016-04-07T06:21:35.117Z,11.18
2016-04-07T06:22:35.135Z,11.15
2016-04-07T06:23:35.138Z,11.15
2016-04-07T06:24:35.203Z,11.15
2016-04-07T06:25:35.174Z,11.17
2016-04-07T06:26:35.176Z,11.22
2016-04-07T06:27:35.211Z,11.27
2016-04-07T06:28:35.214Z,11.27
2016-04-07T06:29:35.232Z,11.35
2016-04-07T06:30:35.265Z,11.41
2016-04-07T06:31:35.268Z,11.41
2016-04-07T06:32:35.287Z,11.4
2016-04-07T06:33:35.305Z,11.37
2016-04-07T06:34:35.308Z,11.37
2016-04-07T06:35:35.326Z,11.44
2016-04-07T06:36:35.345Z,11.52
2016-04-07T06:37:35.363Z,11.51
2016-04-07T06:38:35.381Z,11.47
2016-04-07T06:39:35.414Z,11.52
2016-04-07T06:40:35.403Z,11.5
2016-04-07T06:41:35.420Z,11.44
2016-04-07T06:42:35.455Z,11.44
2016-04-07T06:43:35.442Z,11.48
2016-04-07T06:44:35.461Z,11.55
2016-04-07T06:45:35.478Z,11.6
2016-04-07T06:46:35.496Z,11.57
2016-04-07T06:47:35.530Z,11.52
2016-04-07T06:48:35.533Z,11.62
2016-04-07T06:49:35.536Z,11.65
2016-04-07T06:50:35.555Z,11.63
2016-04-07T06:51:35.588Z,11.66
2016-04-07T06:52:35.607Z,11.7
2016-04-07T06:53:35.593Z,11.6
2016-04-07T06:54:35.612Z,11.63
2016-04-07T06:55:35.629Z,11.72
2016-04-07T06:56:35.632Z,11.72
2016-04-07T06:57:35.667Z,11.77
2016-04-07T06:58:35.685Z,11.83
2016-04-07T06:59:35.704Z,11.88
2016-04-07T07:00:35.706Z,11.95
2016-04-07T07:01:35.740Z,11.86
2016-04-07T07:02:35.742Z,11.9
2016-04-07T07:03:35.745Z,11.94
2016-04-07T07:04:35.779Z,11.97
2016-04-07T07:05:35.782Z,11.88
2016-04-07T07:06:35.801Z,11.84
2016-04-07T07:07:35.834Z,11.91
2016-04-07T07:08:35.837Z,12
2016-04-07T07:09:35.903Z,12.02
2016-04-07T07:10:35.858Z,12.02
2016-04-07T07:11:35.892Z,12
2016-04-07T07:12:35.894Z,12.04
2016-04-07T07:13:35.913Z,12.1
2016-04-07T07:14:35.931Z,12.07
2016-04-07T07:15:35.981Z,12.21
2016-04-07T07:16:35.953Z,12.12
2016-04-07T07:17:36.002Z,12.2
2016-04-07T07:18:35.989Z,12.22
2016-04-07T07:19:36.007Z,12.17
2016-04-07T07:20:36.041Z,12.17
2016-04-07T07:21:36.044Z,12.2
2016-04-07T07:22:36.046Z,12.25
2016-04-07T07:23:36.065Z,12.25
2016-04-07T07:24:36.145Z,12.35
2016-04-07T07:25:36.101Z,12.36
2016-04-07T07:26:36.104Z,12.31
2016-04-07T07:27:36.138Z,12.35
2016-04-07T07:28:36.141Z,12.45
2016-04-07T07:29:36.190Z,12.47
2016-04-07T07:30:36.084Z,12.47
2016-04-07T07:31:36.195Z,12.61
2016-04-07T07:32:35.996Z,12.65
2016-04-07T07:33:36.082Z,12.68
2016-04-07T07:34:36.084Z,12.62
2016-04-07T07:35:36.118Z,12.64
2016-04-07T07:36:36.309Z,12.6
2016-04-07T07:37:36.327Z,12.64
2016-04-07T07:38:36.315Z,12.62
2016-04-07T07:39:36.603Z,12.61
2016-04-07T07:40:36.325Z,12.7
2016-04-07T07:41:36.342Z,12.67
2016-04-07T07:42:36.392Z,12.62
2016-04-07T07:43:36.708Z,12.7
2016-04-07T07:44:36.413Z,12.65
2016-04-07T07:45:36.431Z,12.78
2016-04-07T07:46:36.309Z,12.72
2016-04-07T07:47:36.469Z,12.76
2016-04-07T07:48:36.472Z,12.75
2016-04-07T07:49:36.505Z,12.78
2016-04-07T07:50:36.508Z,12.83
2016-04-07T07:51:36.572Z,12.82
2016-04-07T07:52:36.560Z,12.8
2016-04-07T07:53:36.562Z,12.98
2016-04-07T07:54:36.893Z,12.93
2016-04-07T07:55:36.583Z,13
2016-04-07T07:56:36.601Z,13.05
2016-04-07T07:57:36.463Z,13.05
2016-04-07T07:58:36.638Z,12.97
2016-04-07T07:59:36.688Z,12.91
2016-04-07T08:00:36.660Z,12.91
2016-04-07T08:01:36.709Z,12.95
2016-04-07T08:02:36.696Z,12.97
2016-04-07T08:03:36.730Z,12.95
2016-04-07T08:04:36.732Z,13.04
2016-04-07T08:05:36.751Z,13.16
2016-04-07T08:06:36.784Z,13.15
2016-04-07T08:07:36.787Z,13.28
2016-04-07T08:08:36.821Z,13.23
2016-04-07T08:09:36.871Z,13.25
2016-04-07T08:10:36.843Z,13.28
2016-04-07T08:11:36.845Z,13.33
2016-04-07T08:12:36.739Z,13.37
2016-04-07T08:13:36.975Z,13.44
2016-04-07T08:14:36.900Z,13.41
2016-04-07T08:15:36.965Z,13.5
2016-04-07T08:16:36.953Z,13.54
2016-04-07T08:17:36.956Z,13.47
2016-04-07T08:18:36.989Z,13.49
2016-04-07T08:19:36.976Z,13.47
2016-04-07T08:20:37.041Z,13.52
2016-04-07T08:21:37.091Z,13.52
2016-04-07T08:22:37.031Z,13.5
2016-04-07T08:23:37.049Z,13.47
2016-04-07T08:24:36.943Z,13.52
2016-04-07T08:25:37.085Z,13.54
2016-04-07T08:26:37.104Z,13.57
2016-04-07T08:27:37.122Z,13.63
2016-04-07T08:28:37.172Z,13.72
2016-04-07T08:29:37.582Z,13.68
2016-04-07T08:30:37.163Z,13.68
2016-04-07T08:31:37.180Z,13.52
2016-04-07T08:32:37.199Z,13.65
2016-04-07T08:33:37.248Z,13.56
2016-04-07T08:34:37.251Z,13.47
2016-04-07T08:35:37.268Z,13.41
2016-04-07T08:36:37.335Z,13.49
2016-04-07T08:37:37.323Z,13.57
2016-04-07T08:38:37.310Z,13.6
2016-04-07T08:39:37.313Z,13.53
2016-04-07T08:40:37.346Z,13.49
2016-04-07T08:41:37.349Z,13.52
2016-04-07T08:42:37.366Z,13.42
2016-04-07T08:43:37.385Z,13.52
2016-04-07T08:44:37.404Z,13.46
2016-04-07T08:45:37.422Z,13.62
2016-04-07T08:46:37.457Z,13.59
2016-04-07T08:47:37.474Z,13.6
2016-04-07T08:48:37.493Z,13.67
2016-04-07T08:49:37.385Z,13.67
2016-04-07T08:50:37.529Z,13.68
2016-04-07T08:51:37.531Z,13.68
2016-04-07T08:52:37.550Z,13.67
2016-04-07T08:53:37.568Z,13.68
2016-04-07T08:54:37.603Z,13.68
2016-04-07T08:55:37.480Z,13.65
2016-04-07T08:56:37.623Z,13.71
2016-04-07T08:57:37.657Z,13.68
2016-04-07T08:58:37.675Z,13.67
2016-04-07T08:59:37.694Z,13.72
2016-04-07T09:00:37.697Z,13.75
2016-04-07T09:01:37.715Z,13.7
2016-04-07T09:02:37.718Z,13.68
2016-04-07T09:03:37.736Z,13.74
2016-04-07T09:04:37.770Z,13.83
2016-04-07T09:05:37.772Z,13.81
2016-04-07T09:06:37.791Z,13.81
2016-04-07T09:08:37.827Z,13.71
2016-04-07T09:09:37.846Z,13.6
2016-04-07T09:10:37.864Z,13.6
2016-04-07T09:11:37.882Z,13.57
2016-04-07T09:12:37.902Z,13.59
2016-04-07T09:13:37.966Z,13.7
2016-04-07T09:14:37.922Z,13.67
2016-04-07T09:15:37.955Z,13.7
2016-04-07T09:16:37.974Z,13.65
2016-04-07T09:17:37.977Z,13.68
2016-04-07T09:18:37.995Z,13.63
2016-04-07T09:19:38.013Z,13.71
2016-04-07T09:20:38.047Z,13.71
2016-04-07T09:21:38.066Z,13.71
2016-04-07T09:22:38.092Z,13.74
2016-04-07T09:23:38.147Z,13.81
2016-04-07T09:24:38.201Z,13.75
2016-04-07T09:25:38.256Z,13.81
2016-04-07T09:26:38.295Z,13.86
2016-04-07T09:27:38.382Z,13.86
2016-04-07T09:28:38.367Z,13.89
2016-04-07T09:29:38.398Z,13.83
2016-04-07T09:30:38.445Z,13.9
2016-04-07T09:31:38.477Z,13.93
2016-04-07T09:32:38.487Z,14.05
2016-04-07T09:33:38.525Z,14
2016-04-07T09:34:38.548Z,14.03
2016-04-07T09:35:38.570Z,13.99
2016-04-07T09:36:38.578Z,13.99
2016-04-07T09:37:38.599Z,13.85
2016-04-07T09:38:38.620Z,13.9
2016-04-07T09:39:38.640Z,13.92
2016-04-07T09:40:38.661Z,13.93
2016-04-07T09:41:38.665Z,13.89
2016-04-07T09:42:38.731Z,13.87
2016-04-07T09:43:38.734Z,13.87
2016-04-07T09:44:38.738Z,13.87
2016-04-07T09:45:38.601Z,13.87
2016-04-07T09:46:38.760Z,13.89
2016-04-07T09:47:38.779Z,13.87
2016-04-07T09:48:38.797Z,13.92
2016-04-07T09:49:38.863Z,13.87
2016-04-07T09:50:38.913Z,13.86
2016-04-07T09:51:38.836Z,13.83
2016-04-07T09:52:38.855Z,13.81
2016-04-07T09:53:38.873Z,13.81
2016-04-07T09:54:38.907Z,13.75
2016-04-07T09:55:38.926Z,13.9
2016-04-07T09:56:38.944Z,13.85
2016-04-07T09:57:38.962Z,13.85
2016-04-07T09:58:38.996Z,13.87
2016-04-07T09:59:38.983Z,13.78
2016-04-07T10:00:39.001Z,13.83
2016-04-07T10:01:39.020Z,13.77
2016-04-07T10:02:39.053Z,13.79
2016-04-07T10:03:39.056Z,13.78
2016-04-07T10:04:39.090Z,13.86
2016-04-07T10:05:39.093Z,13.83
2016-04-07T10:06:39.127Z,13.79
2016-04-07T10:07:39.130Z,13.81
2016-04-07T10:08:39.163Z,13.78
2016-04-07T10:09:39.181Z,13.79
2016-04-07T10:10:39.200Z,13.7
2016-04-07T10:11:39.219Z,13.67
2016-04-07T10:12:39.236Z,13.7
2016-04-07T10:13:39.224Z,13.7
2016-04-07T10:14:39.242Z,13.83
2016-04-07T10:15:39.275Z,13.86
2016-04-07T10:16:39.295Z,13.83
2016-04-07T10:17:39.297Z,13.85
2016-04-07T10:18:39.316Z,13.87
2016-04-07T10:19:39.381Z,13.99
2016-04-07T10:20:39.368Z,14.03
2016-04-07T10:21:39.371Z,13.97
2016-04-07T10:22:39.388Z,13.97
2016-04-07T10:23:39.408Z,14.05
2016-04-07T10:24:39.425Z,14.07
2016-04-07T10:25:39.444Z,14.14
2016-04-07T10:26:39.463Z,14.12
2016-04-07T10:27:39.480Z,14.18
2016-04-07T10:28:39.499Z,14.14
2016-04-07T10:29:39.501Z,14.15
2016-04-07T10:30:39.535Z,14.17
2016-04-07T10:31:39.553Z,14.28
2016-04-07T10:32:39.587Z,14.3
2016-04-07T10:33:39.574Z,14.18
2016-04-07T10:34:39.609Z,14.1
2016-04-07T10:35:39.768Z,14.08
2016-04-07T10:36:39.645Z,14.25
2016-04-07T10:37:39.648Z,14.29
2016-04-07T10:38:39.681Z,14.32
2016-04-07T10:39:39.684Z,14.45
2016-04-07T10:40:39.733Z,14.43
2016-04-07T10:41:39.720Z,14.51
2016-04-07T10:42:39.739Z,14.51
2016-04-07T10:43:39.758Z,14.35
2016-04-07T10:44:39.776Z,14.43
2016-04-07T10:45:39.795Z,14.51
2016-04-07T10:46:39.828Z,14.47
2016-04-07T10:47:39.831Z,14.51
2016-04-07T10:48:39.850Z,14.62
2016-04-07T10:49:39.867Z,14.78
2016-04-07T10:50:39.870Z,14.89
2016-04-07T10:51:39.905Z,14.97
2016-04-07T10:52:39.908Z,15
2016-04-07T10:53:39.941Z,15.04
2016-04-07T10:54:39.960Z,15.06
2016-04-07T10:55:39.962Z,15.07
2016-04-07T10:56:40.011Z,15.11
2016-04-07T10:57:40.014Z,15.17
2016-04-07T10:58:40.032Z,15.27
2016-04-07T10:59:40.035Z,15.33
2016-04-07T11:00:40.053Z,15.36
2016-04-07T11:01:40.087Z,15.54
2016-04-07T11:02:40.106Z,15.46
2016-04-07T11:03:40.140Z,15.57
2016-04-07T11:04:40.158Z,15.52
2016-04-07T11:05:40.145Z,15.57
2016-04-07T11:06:40.179Z,15.62
2016-04-07T11:07:40.228Z,15.58
2016-04-07T11:08:40.215Z,15.57
2016-04-07T11:09:40.233Z,15.57
2016-04-07T11:10:40.252Z,15.57
2016-04-07T11:11:40.301Z,15.72
2016-04-07T11:12:40.304Z,15.76
2016-04-07T11:13:40.307Z,15.76
2016-04-07T11:14:40.310Z,15.75
2016-04-07T11:15:40.328Z,15.72
2016-04-07T11:16:40.378Z,15.64
2016-04-07T11:17:40.380Z,15.83
2016-04-07T11:18:40.430Z,15.7
2016-04-07T11:19:40.745Z,15.82
2016-04-07T11:20:40.436Z,15.86
2016-04-07T11:21:40.454Z,15.88
2016-04-07T11:22:40.472Z,15.88
2016-04-07T11:23:40.506Z,15.91
2016-04-07T11:24:40.493Z,15.97
2016-04-07T11:25:40.527Z,15.98
2016-04-07T11:26:40.576Z,16.01
2016-04-07T11:27:40.579Z,15.95
2016-04-07T11:28:40.582Z,15.88
2016-04-07T11:29:40.616Z,15.91
2016-04-07T11:30:40.619Z,15.95
2016-04-07T11:31:40.637Z,15.88
2016-04-07T11:32:40.515Z,15.91
2016-04-07T11:33:40.674Z,15.82
2016-04-07T11:34:40.723Z,15.84
2016-04-07T11:35:40.710Z,15.97
2016-04-07T11:36:41.432Z,16.04
2016-04-07T11:37:40.746Z,16.23
2016-04-07T11:38:40.781Z,16.21
2016-04-07T11:39:40.799Z,16.32
2016-04-07T11:40:40.818Z,16.36
2016-04-07T11:41:40.851Z,16.38
2016-04-07T11:42:40.901Z,16.31
2016-04-07T11:43:40.888Z,16.26
2016-04-07T11:44:40.906Z,16.23
2016-04-07T11:45:40.925Z,16.39
2016-04-07T11:46:40.975Z,16.38
2016-04-07T11:47:40.961Z,16.41
2016-04-07T11:48:40.995Z,16.56
2016-04-07T11:49:41.014Z,16.51
2016-04-07T11:50:41.031Z,16.47
2016-04-07T11:51:41.034Z,16.46
2016-04-07T11:52:41.053Z,16.43
2016-04-07T11:53:41.118Z,16.54
2016-04-07T11:54:41.089Z,16.58
2016-04-07T11:55:41.108Z,16.66
2016-04-07T11:56:41.158Z,16.57
2016-04-07T11:57:41.175Z,16.58
2016-04-07T11:58:41.178Z,16.64
2016-04-07T11:59:41.260Z,16.66
2016-04-07T12:00:41.215Z,16.53
2016-04-07T12:01:41.218Z,16.58
2016-04-07T12:02:41.236Z,16.58
2016-04-07T12:03:41.285Z,16.51
2016-04-07T12:04:41.288Z,16.54
2016-04-07T12:05:41.307Z,16.65
2016-04-07T12:06:41.324Z,16.6
2016-04-07T12:07:41.343Z,16.58
2016-04-07T12:08:41.346Z,16.56
2016-04-07T12:09:41.395Z,16.69
2016-04-07T12:10:41.398Z,16.69
2016-04-07T12:11:41.447Z,16.61
2016-04-07T12:12:41.434Z,16.53
2016-04-07T12:13:41.468Z,16.68
2016-04-07T12:14:41.487Z,16.56
2016-04-07T12:15:41.490Z,16.65
2016-04-07T12:16:41.523Z,16.66
2016-04-07T12:17:41.542Z,16.57
2016-04-07T12:18:41.575Z,16.43
2016-04-07T12:19:41.594Z,16.43
2016-04-07T12:20:41.581Z,16.46
2016-04-07T12:21:41.755Z,16.46
2016-04-07T12:22:41.617Z,16.47
2016-04-07T12:23:41.651Z,16.43
2016-04-07T12:24:41.529Z,16.41
2016-04-07T12:25:41.704Z,16.36
2016-04-07T12:26:41.722Z,16.38
2016-04-07T12:27:41.741Z,16.35
2016-04-07T12:28:41.758Z,16.41
2016-04-07T12:29:41.761Z,16.36
2016-04-07T12:30:41.796Z,16.43
2016-04-07T12:31:41.798Z,16.43
2016-04-07T12:32:41.816Z,16.54
2016-04-07T12:33:41.850Z,16.51
2016-04-07T12:34:41.868Z,16.56
2016-04-07T12:35:41.887Z,16.36
2016-04-07T12:36:41.921Z,16.33
2016-04-07T12:37:42.033Z,16.33
2016-04-07T12:38:41.973Z,16.26
2016-04-07T12:39:41.960Z,16.32
2016-04-07T12:40:41.978Z,16.39
2016-04-07T12:41:42.012Z,16.38
2016-04-07T12:42:42.031Z,16.39
2016-04-07T12:43:42.049Z,16.43
2016-04-07T12:44:42.068Z,16.42
2016-04-07T12:45:42.070Z,16.39
2016-04-07T12:46:42.120Z,16.43
2016-04-07T12:47:42.122Z,16.38
2016-04-07T12:48:42.609Z,16.46
2016-04-07T12:49:42.377Z,16.42
2016-04-07T12:50:42.364Z,16.33
2016-04-07T12:51:42.570Z,16.21
2016-04-07T12:52:42.369Z,16.24
2016-04-07T12:53:42.248Z,16.24
2016-04-07T12:54:42.250Z,16.16
2016-04-07T12:55:42.269Z,16.15
2016-04-07T12:56:42.306Z,16.17
2016-04-07T12:57:42.308Z,16.21
2016-04-07T12:58:42.327Z,16.24
2016-04-07T12:59:42.344Z,16.17
2016-04-07T13:00:42.363Z,15.95
2016-04-07T13:01:42.397Z,15.84